sensor_id;sensor_type;location;lat;lon;timestamp;P1;durP1;ratioP1;P2;durP2;ratioP2
75516;SDS011;64097;52.548;13.406;2023-04-25T06:02:45;6.47;;;3.33;;
75516;SDS011;64097;52.548;13.406;2023-04-25T06:05:11;8.02;;;3.40;;
75516;SDS011;64097;52.548;13.406;2023-04-25T06:07:37;6.07;;;3.63;;
75516;SDS011;64097;52.548;13.406;2023-04-25T06:10:03;5.57;;;3.88;;
75516;SDS011;64097;52.548;13.406;2023-04-25T06:12:31;5.70;;;3.80;;
75516;SDS011;64097;52.548;13.406;2023-04-25T06:14:58;5.63;;;3.58;;
75516;SDS011;64097;52.548;13.406;2023-04-25T06:17:24;5.72;;;3.75;;
75516;SDS011;64097;52.548;13.406;2023-04-25T06:19:50;4.40;;;3.47;;
75516;SDS011;64097;52.548;13.406;2023-04-25T06:22:16;5.68;;;3.45;;
75516;SDS011;64097;52.548;13.406;2023-04-25T06:24:42;16.23;;;3.85;;
75516;SDS011;64097;52.548;13.406;2023-04-25T06:27:07;5.28;;;3.45;;
75516;SDS011;64097;52.548;13.406;2023-04-25T06:29:33;5.82;;;3.53;;
75516;SDS011;64097;52.548;13.406;2023-04-25T06:31:59;6.75;;;3.60;;
75516;SDS011;64097;52.548;13.406;2023-04-25T06:34:25;4.35;;;3.05;;
75516;SDS011;64097;52.548;13.406;2023-04-25T06:36:50;5.35;;;3.28;;
75516;SDS011;64097;52.548;13.406;2023-04-25T06:39:16;7.32;;;3.30;;
75516;SDS011;64097;52.548;13.406;2023-04-25T06:41:43;5.70;;;3.58;;
75516;SDS011;64097;52.548;13.406;2023-04-25T06:44:08;4.13;;;3.05;;
75516;SDS011;64097;52.548;13.406;2023-04-25T06:46:34;3.97;;;2.92;;
75516;SDS011;64097;52.548;13.406;2023-04-25T06:49:01;5.85;;;3.60;;
75516;SDS011;64097;52.548;13.406;2023-04-25T06:51:26;4.85;;;3.13;;
75516;SDS011;64097;52.548;13.406;2023-04-25T06:53:54;4.70;;;2.97;;
75516;SDS011;64097;52.548;13.406;2023-04-25T06:56:20;5.13;;;3.53;;
75516;SDS011;64097;52.548;13.406;2023-04-25T06:58:46;4.80;;;3.10;;
75516;SDS011;64097;52.548;13.406;2023-04-25T07:01:12;4.72;;;3.10;;
75516;SDS011;64097;52.548;13.406;2023-04-25T07:03:37;5.38;;;3.22;;
75516;SDS011;64097;52.548;13.406;2023-04-25T07:06:03;6.70;;;3.47;;
75516;SDS011;64097;52.548;13.406;2023-04-25T07:08:29;4.75;;;2.85;;
75516;SDS011;64097;52.548;13.406;2023-04-25T07:10:55;3.75;;;2.55;;
75516;SDS011;64097;52.548;13.406;2023-04-25T07:13:20;4.82;;;2.83;;
75516;SDS011;64097;52.548;13.406;2023-04-25T07:15:46;3.88;;;2.97;;
75516;SDS011;64097;52.548;13.406;2023-04-25T07:18:13;3.17;;;2.58;;
75516;SDS011;64097;52.548;13.406;2023-04-25T07:20:39;6.30;;;3.63;;
75516;SDS011;64097;52.548;13.406;2023-04-25T07:23:04;5.22;;;3.13;;
75516;SDS011;64097;52.548;13.406;2023-04-25T07:25:30;3.92;;;3.15;;
75516;SDS011;64097;52.548;13.406;2023-04-25T07:27:56;3.55;;;2.63;;
75516;SDS011;64097;52.548;13.406;2023-04-25T07:30:22;5.68;;;3.58;;
75516;SDS011;64097;52.548;13.406;2023-04-25T07:32:48;8.15;;;4.03;;
75516;SDS011;64097;52.548;13.406;2023-04-25T07:35:15;7.05;;;3.70;;
75516;SDS011;64097;52.548;13.406;2023-04-25T07:37:42;5.80;;;3.63;;
75516;SDS011;64097;52.548;13.406;2023-04-25T07:40:08;5.97;;;3.88;;
75516;SDS011;64097;52.548;13.406;2023-04-25T07:42:34;5.47;;;3.30;;
75516;SDS011;64097;52.548;13.406;2023-04-25T07:45:01;6.43;;;2.90;;
75516;SDS011;64097;52.548;13.406;2023-04-25T07:47:28;7.45;;;3.13;;
75516;SDS011;64097;52.548;13.406;2023-04-25T07:49:54;6.95;;;3.25;;
75516;SDS011;64097;52.548;13.406;2023-04-25T07:52:21;7.20;;;3.38;;
75516;SDS011;64097;52.548;13.406;2023-04-25T07:54:50;7.78;;;3.15;;
75516;SDS011;64097;52.548;13.406;2023-04-25T07:57:16;5.65;;;2.80;;
75516;SDS011;64097;52.548;13.406;2023-04-25T07:59:42;7.35;;;2.72;;
75516;SDS011;64097;52.548;13.406;2023-04-25T08:02:08;5.05;;;2.80;;
75516;SDS011;64097;52.548;13.406;2023-04-25T08:04:34;8.35;;;2.75;;
75516;SDS011;64097;52.548;13.406;2023-04-25T08:07:00;7.47;;;2.88;;
75516;SDS011;64097;52.548;13.406;2023-04-25T08:09:26;13.50;;;3.47;;
75516;SDS011;64097;52.548;13.406;2023-04-25T08:11:52;11.50;;;3.53;;
75516;SDS011;64097;52.548;13.406;2023-04-25T08:14:17;10.38;;;3.33;;
75516;SDS011;64097;52.548;13.406;2023-04-25T08:16:43;7.38;;;2.83;;
75516;SDS011;64097;52.548;13.406;2023-04-25T08:19:09;10.45;;;3.10;;
75516;SDS011;64097;52.548;13.406;2023-04-25T08:21:36;10.80;;;3.47;;
75516;SDS011;64097;52.548;13.406;2023-04-25T08:24:01;8.73;;;3.17;;
75516;SDS011;64097;52.548;13.406;2023-04-25T08:26:28;7.85;;;3.00;;
75516;SDS011;64097;52.548;13.406;2023-04-25T08:28:54;9.40;;;2.97;;
75516;SDS011;64097;52.548;13.406;2023-04-25T08:31:20;8.05;;;3.08;;
75516;SDS011;64097;52.548;13.406;2023-04-25T08:33:46;8.18;;;3.75;;
75516;SDS011;64097;52.548;13.406;2023-04-25T08:36:12;9.48;;;4.18;;
75516;SDS011;64097;52.548;13.406;2023-04-25T08:38:37;11.48;;;4.03;;
75516;SDS011;64097;52.548;13.406;2023-04-25T08:41:03;8.90;;;3.30;;
75516;SDS011;64097;52.548;13.406;2023-04-25T08:43:31;7.43;;;2.70;;
75516;SDS011;64097;52.548;13.406;2023-04-25T08:45:58;5.88;;;2.70;;
75516;SDS011;64097;52.548;13.406;2023-04-25T08:48:26;8.60;;;3.30;;
75516;SDS011;64097;52.548;13.406;2023-04-25T08:50:53;7.10;;;2.85;;
75516;SDS011;64097;52.548;13.406;2023-04-25T08:53:28;7.88;;;2.30;;
75516;SDS011;64097;52.548;13.406;2023-04-25T08:55:55;8.60;;;3.20;;
75516;SDS011;64097;52.548;13.406;2023-04-25T08:58:23;8.02;;;2.83;;
75516;SDS011;64097;52.548;13.406;2023-04-25T09:00:49;4.50;;;1.85;;
75516;SDS011;64097;52.548;13.406;2023-04-25T09:03:16;7.00;;;2.42;;
75516;SDS011;64097;52.548;13.406;2023-04-25T09:05:44;5.60;;;2.40;;
75516;SDS011;64097;52.548;13.406;2023-04-25T09:08:10;9.80;;;2.20;;
75516;SDS011;64097;52.548;13.406;2023-04-25T09:10:36;7.80;;;2.30;;
75516;SDS011;64097;52.548;13.406;2023-04-25T09:13:09;7.00;;;2.78;;
75516;SDS011;64097;52.548;13.406;2023-04-25T09:15:51;7.93;;;2.53;;
75516;SDS011;64097;52.548;13.406;2023-04-25T09:18:25;8.88;;;2.60;;
75516;SDS011;64097;52.548;13.406;2023-04-25T09:20:54;9.37;;;2.80;;
75516;SDS011;64097;52.548;13.406;2023-04-25T09:23:21;5.50;;;2.13;;
75516;SDS011;64097;52.548;13.406;2023-04-25T09:25:49;6.15;;;2.20;;
75516;SDS011;64097;52.548;13.406;2023-04-25T09:28:16;8.65;;;2.65;;
75516;SDS011;64097;52.548;13.406;2023-04-25T09:30:47;9.00;;;2.35;;
75516;SDS011;64097;52.548;13.406;2023-04-25T09:33:13;6.18;;;2.33;;
75516;SDS011;64097;52.548;13.406;2023-04-25T09:35:40;7.22;;;2.35;;
75516;SDS011;64097;52.548;13.406;2023-04-25T09:38:11;7.15;;;2.40;;
75516;SDS011;64097;52.548;13.406;2023-04-25T09:40:44;7.00;;;2.85;;
75516;SDS011;64097;52.548;13.406;2023-04-25T09:43:20;7.63;;;2.53;;
75516;SDS011;64097;52.548;13.406;2023-04-25T09:45:49;8.48;;;2.58;;
75516;SDS011;64097;52.548;13.406;2023-04-25T09:48:17;8.23;;;2.30;;
75516;SDS011;64097;52.548;13.406;2023-04-25T09:50:45;6.82;;;1.58;;
75516;SDS011;64097;52.548;13.406;2023-04-25T09:53:30;7.30;;;2.20;;
75516;SDS011;64097;52.548;13.406;2023-04-25T09:55:58;7.30;;;2.78;;
75516;SDS011;64097;52.548;13.406;2023-04-25T09:58:25;7.97;;;3.88;;
75516;SDS011;64097;52.548;13.406;2023-04-25T10:00:56;6.93;;;2.47;;
75516;SDS011;64097;52.548;13.406;2023-04-25T10:03:25;5.05;;;2.00;;
75516;SDS011;64097;52.548;13.406;2023-04-25T10:05:51;5.47;;;2.20;;
75516;SDS011;64097;52.548;13.406;2023-04-25T10:08:18;7.43;;;2.10;;
75516;SDS011;64097;52.548;13.406;2023-04-25T10:10:45;4.72;;;1.80;;
75516;SDS011;64097;52.548;13.406;2023-04-25T10:13:13;4.68;;;1.80;;
75516;SDS011;64097;52.548;13.406;2023-04-25T10:15:40;6.90;;;2.22;;
75516;SDS011;64097;52.548;13.406;2023-04-25T10:18:11;4.57;;;1.95;;
75516;SDS011;64097;52.548;13.406;2023-04-25T10:20:37;5.72;;;1.95;;
75516;SDS011;64097;52.548;13.406;2023-04-25T10:23:06;6.72;;;2.25;;
75516;SDS011;64097;52.548;13.406;2023-04-25T10:25:38;6.50;;;1.90;;
75516;SDS011;64097;52.548;13.406;2023-04-25T10:28:05;5.82;;;1.88;;
75516;SDS011;64097;52.548;13.406;2023-04-25T10:30:31;6.25;;;2.08;;
75516;SDS011;64097;52.548;13.406;2023-04-25T10:32:56;6.75;;;2.10;;
75516;SDS011;64097;52.548;13.406;2023-04-25T10:37:57;11.77;;;4.43;;
75516;SDS011;64097;52.548;13.406;2023-04-25T10:40:24;12.88;;;3.65;;
75516;SDS011;64097;52.548;13.406;2023-04-25T10:42:53;9.90;;;3.08;;
75516;SDS011;64097;52.548;13.406;2023-04-25T10:45:21;8.13;;;3.05;;
75516;SDS011;64097;52.548;13.406;2023-04-25T10:47:47;6.85;;;2.47;;
75516;SDS011;64097;52.548;13.406;2023-04-25T10:50:15;6.82;;;2.38;;
75516;SDS011;64097;52.548;13.406;2023-04-25T10:52:42;10.00;;;2.17;;
75516;SDS011;64097;52.548;13.406;2023-04-25T10:55:09;10.98;;;2.45;;
75516;SDS011;64097;52.548;13.406;2023-04-25T10:57:44;4.95;;;1.90;;
75516;SDS011;64097;52.548;13.406;2023-04-25T11:02:46;6.72;;;1.70;;
75516;SDS011;64097;52.548;13.406;2023-04-25T11:05:23;10.05;;;2.13;;
75516;SDS011;64097;52.548;13.406;2023-04-25T11:08:00;6.50;;;2.00;;
75516;SDS011;64097;52.548;13.406;2023-04-25T11:10:28;11.77;;;1.92;;
75516;SDS011;64097;52.548;13.406;2023-04-25T11:12:56;19.92;;;2.50;;
75516;SDS011;64097;52.548;13.406;2023-04-25T11:15:22;9.07;;;2.45;;
75516;SDS011;64097;52.548;13.406;2023-04-25T11:17:50;7.50;;;2.80;;
75516;SDS011;64097;52.548;13.406;2023-04-25T11:20:17;5.85;;;2.10;;
75516;SDS011;64097;52.548;13.406;2023-04-25T11:22:44;6.57;;;1.98;;
75516;SDS011;64097;52.548;13.406;2023-04-25T11:25:11;6.43;;;2.08;;
75516;SDS011;64097;52.548;13.406;2023-04-25T11:27:50;4.68;;;2.10;;
75516;SDS011;64097;52.548;13.406;2023-04-25T11:30:22;4.70;;;1.90;;
75516;SDS011;64097;52.548;13.406;2023-04-25T11:32:49;6.03;;;1.88;;
75516;SDS011;64097;52.548;13.406;2023-04-25T11:35:16;4.93;;;1.88;;
75516;SDS011;64097;52.548;13.406;2023-04-25T11:37:43;5.47;;;1.77;;
75516;SDS011;64097;52.548;13.406;2023-04-25T11:40:10;3.90;;;1.70;;
75516;SDS011;64097;52.548;13.406;2023-04-25T11:42:42;4.00;;;1.67;;
75516;SDS011;64097;52.548;13.406;2023-04-25T11:45:10;5.03;;;1.70;;
75516;SDS011;64097;52.548;13.406;2023-04-25T11:47:36;5.03;;;1.63;;
75516;SDS011;64097;52.548;13.406;2023-04-25T11:50:03;5.95;;;1.92;;
75516;SDS011;64097;52.548;13.406;2023-04-25T11:52:44;3.65;;;1.70;;
75516;SDS011;64097;52.548;13.406;2023-04-25T11:55:15;6.38;;;1.95;;
75516;SDS011;64097;52.548;13.406;2023-04-25T11:57:47;5.47;;;1.75;;
75516;SDS011;64097;52.548;13.406;2023-04-25T12:00:17;6.43;;;1.85;;
75516;SDS011;64097;52.548;13.406;2023-04-25T12:02:47;5.53;;;1.67;;
75516;SDS011;64097;52.548;13.406;2023-04-25T12:05:17;6.78;;;1.73;;
75516;SDS011;64097;52.548;13.406;2023-04-25T12:07:44;7.65;;;1.88;;
75516;SDS011;64097;52.548;13.406;2023-04-25T12:10:11;7.45;;;2.03;;
75516;SDS011;64097;52.548;13.406;2023-04-25T12:12:41;6.03;;;1.90;;
75516;SDS011;64097;52.548;13.406;2023-04-25T12:17:40;6.05;;;1.70;;
75516;SDS011;64097;52.548;13.406;2023-04-25T12:20:11;6.80;;;2.08;;
75516;SDS011;64097;52.548;13.406;2023-04-25T12:22:40;5.72;;;2.00;;
75516;SDS011;64097;52.548;13.406;2023-04-25T12:25:10;4.28;;;1.85;;
75516;SDS011;64097;52.548;13.406;2023-04-25T12:27:40;5.32;;;1.80;;
75516;SDS011;64097;52.548;13.406;2023-04-25T12:30:07;5.00;;;2.05;;
75516;SDS011;64097;52.548;13.406;2023-04-25T12:32:33;6.60;;;2.10;;
75516;SDS011;64097;52.548;13.406;2023-04-25T12:34:59;8.02;;;3.22;;
75516;SDS011;64097;52.548;13.406;2023-04-25T12:37:24;6.63;;;3.00;;
75516;SDS011;64097;52.548;13.406;2023-04-25T12:39:51;6.35;;;2.03;;
75516;SDS011;64097;52.548;13.406;2023-04-25T12:42:16;4.47;;;1.70;;
75516;SDS011;64097;52.548;13.406;2023-04-25T12:44:42;5.30;;;1.75;;
75516;SDS011;64097;52.548;13.406;2023-04-25T12:47:08;4.80;;;1.80;;
75516;SDS011;64097;52.548;13.406;2023-04-25T12:49:34;7.32;;;2.13;;
75516;SDS011;64097;52.548;13.406;2023-04-25T12:51:59;3.88;;;1.52;;
75516;SDS011;64097;52.548;13.406;2023-04-25T12:54:25;3.78;;;1.80;;
75516;SDS011;64097;52.548;13.406;2023-04-25T12:56:51;6.55;;;1.60;;
75516;SDS011;64097;52.548;13.406;2023-04-25T12:59:17;5.22;;;1.80;;
75516;SDS011;64097;52.548;13.406;2023-04-25T13:01:44;4.70;;;1.70;;
75516;SDS011;64097;52.548;13.406;2023-04-25T13:04:10;7.43;;;1.70;;
75516;SDS011;64097;52.548;13.406;2023-04-25T13:06:36;5.90;;;1.88;;
75516;SDS011;64097;52.548;13.406;2023-04-25T13:09:02;3.55;;;1.55;;
75516;SDS011;64097;52.548;13.406;2023-04-25T13:11:28;4.10;;;1.42;;
75516;SDS011;64097;52.548;13.406;2023-04-25T13:13:54;2.90;;;1.20;;
75516;SDS011;64097;52.548;13.406;2023-04-25T13:16:20;5.30;;;1.35;;
75516;SDS011;64097;52.548;13.406;2023-04-25T13:18:46;4.47;;;1.48;;
75516;SDS011;64097;52.548;13.406;2023-04-25T13:21:12;5.97;;;1.45;;
75516;SDS011;64097;52.548;13.406;2023-04-25T13:23:37;4.47;;;1.38;;
75516;SDS011;64097;52.548;13.406;2023-04-25T13:26:03;2.58;;;1.40;;
75516;SDS011;64097;52.548;13.406;2023-04-25T13:28:29;5.10;;;1.30;;
75516;SDS011;64097;52.548;13.406;2023-04-25T13:30:55;3.40;;;1.30;;
75516;SDS011;64097;52.548;13.406;2023-04-25T13:33:21;3.95;;;1.50;;
75516;SDS011;64097;52.548;13.406;2023-04-25T13:35:47;4.40;;;1.50;;
75516;SDS011;64097;52.548;13.406;2023-04-25T13:38:21;7.35;;;1.70;;
75516;SDS011;64097;52.548;13.406;2023-04-25T13:40:48;4.45;;;1.60;;
75516;SDS011;64097;52.548;13.406;2023-04-25T13:43:15;4.18;;;1.30;;
75516;SDS011;64097;52.548;13.406;2023-04-25T13:45:41;4.13;;;1.50;;
75516;SDS011;64097;52.548;13.406;2023-04-25T13:48:07;3.45;;;1.50;;
75516;SDS011;64097;52.548;13.406;2023-04-25T13:50:32;4.75;;;1.70;;
75516;SDS011;64097;52.548;13.406;2023-04-25T13:52:58;3.55;;;1.50;;
75516;SDS011;64097;52.548;13.406;2023-04-25T13:55:24;2.92;;;1.25;;
75516;SDS011;64097;52.548;13.406;2023-04-25T13:57:49;3.55;;;1.40;;
75516;SDS011;64097;52.548;13.406;2023-04-25T14:11:30;4.53;;;1.63;;
75516;SDS011;64097;52.548;13.406;2023-04-25T14:13:55;3.78;;;1.80;;
75516;SDS011;64097;52.548;13.406;2023-04-25T14:16:21;3.97;;;1.48;;
75516;SDS011;64097;52.548;13.406;2023-04-25T14:18:48;3.75;;;1.48;;
75516;SDS011;64097;52.548;13.406;2023-04-25T14:21:13;3.40;;;1.30;;
75516;SDS011;64097;52.548;13.406;2023-04-25T14:23:40;2.10;;;1.20;;
75516;SDS011;64097;52.548;13.406;2023-04-25T14:26:05;2.78;;;1.27;;
75516;SDS011;64097;52.548;13.406;2023-04-25T14:28:31;4.50;;;1.45;;
75516;SDS011;64097;52.548;13.406;2023-04-25T14:30:57;2.95;;;1.27;;
75516;SDS011;64097;52.548;13.406;2023-04-25T14:33:25;3.15;;;1.23;;
75516;SDS011;64097;52.548;13.406;2023-04-25T14:35:51;5.03;;;1.10;;
75516;SDS011;64097;52.548;13.406;2023-04-25T14:38:17;5.55;;;1.48;;
75516;SDS011;64097;52.548;13.406;2023-04-25T14:40:48;2.78;;;1.42;;
75516;SDS011;64097;52.548;13.406;2023-04-25T14:43:14;4.28;;;1.58;;
75516;SDS011;64097;52.548;13.406;2023-04-25T14:45:40;2.40;;;1.20;;
75516;SDS011;64097;52.548;13.406;2023-04-25T14:48:06;3.17;;;1.20;;
75516;SDS011;64097;52.548;13.406;2023-04-25T14:50:31;2.55;;;1.20;;
75516;SDS011;64097;52.548;13.406;2023-04-25T14:52:57;4.18;;;1.30;;
75516;SDS011;64097;52.548;13.406;2023-04-25T14:55:25;3.20;;;1.10;;
75516;SDS011;64097;52.548;13.406;2023-04-25T14:57:53;4.68;;;1.20;;
75516;SDS011;64097;52.548;13.406;2023-04-25T15:00:19;3.40;;;1.45;;
75516;SDS011;64097;52.548;13.406;2023-04-25T15:02:45;2.40;;;1.30;;
75516;SDS011;64097;52.548;13.406;2023-04-25T15:05:12;3.70;;;1.67;;
75516;SDS011;64097;52.548;13.406;2023-04-25T15:07:38;5.22;;;2.42;;
75516;SDS011;64097;52.548;13.406;2023-04-25T15:10:08;5.70;;;2.92;;
75516;SDS011;64097;52.548;13.406;2023-04-25T15:12:38;4.03;;;2.22;;
75516;SDS011;64097;52.548;13.406;2023-04-25T15:15:05;4.30;;;1.80;;
75516;SDS011;64097;52.548;13.406;2023-04-25T15:17:36;2.95;;;1.40;;
75516;SDS011;64097;52.548;13.406;2023-04-25T15:20:11;4.03;;;1.50;;
75516;SDS011;64097;52.548;13.406;2023-04-25T15:22:38;2.70;;;1.17;;
75516;SDS011;64097;52.548;13.406;2023-04-25T15:25:05;3.08;;;1.10;;
75516;SDS011;64097;52.548;13.406;2023-04-25T15:27:35;2.97;;;1.00;;
75516;SDS011;64097;52.548;13.406;2023-04-25T15:30:07;2.72;;;1.40;;
75516;SDS011;64097;52.548;13.406;2023-04-25T15:32:36;2.80;;;1.80;;
75516;SDS011;64097;52.548;13.406;2023-04-25T15:35:03;3.00;;;1.50;;
75516;SDS011;64097;52.548;13.406;2023-04-25T15:37:30;3.47;;;1.85;;
75516;SDS011;64097;52.548;13.406;2023-04-25T15:40:06;3.63;;;1.85;;
75516;SDS011;64097;52.548;13.406;2023-04-25T15:42:47;3.38;;;1.50;;
75516;SDS011;64097;52.548;13.406;2023-04-25T15:45:21;3.35;;;1.20;;
75516;SDS011;64097;52.548;13.406;2023-04-25T15:47:50;3.65;;;1.30;;
75516;SDS011;64097;52.548;13.406;2023-04-25T15:52:50;3.25;;;1.13;;
75516;SDS011;64097;52.548;13.406;2023-04-25T15:55:16;2.90;;;1.00;;
75516;SDS011;64097;52.548;13.406;2023-04-25T15:57:43;1.92;;;1.05;;
75516;SDS011;64097;52.548;13.406;2023-04-25T16:00:09;2.13;;;0.80;;
75516;SDS011;64097;52.548;13.406;2023-04-25T16:02:40;2.05;;;0.70;;
75516;SDS011;64097;52.548;13.406;2023-04-25T16:05:07;1.85;;;0.90;;
75516;SDS011;64097;52.548;13.406;2023-04-25T16:07:33;2.22;;;0.95;;
75516;SDS011;64097;52.548;13.406;2023-04-25T16:09:59;2.83;;;1.02;;
75516;SDS011;64097;52.548;13.406;2023-04-25T16:12:25;4.15;;;1.10;;
75516;SDS011;64097;52.548;13.406;2023-04-25T16:14:52;2.45;;;1.00;;
75516;SDS011;64097;52.548;13.406;2023-04-25T16:17:19;2.33;;;1.10;;
75516;SDS011;64097;52.548;13.406;2023-04-25T16:19:44;1.85;;;1.00;;
75516;SDS011;64097;52.548;13.406;2023-04-25T16:22:10;2.53;;;0.90;;
75516;SDS011;64097;52.548;13.406;2023-04-25T16:24:40;2.83;;;1.20;;
75516;SDS011;64097;52.548;13.406;2023-04-25T16:27:06;2.38;;;1.00;;
75516;SDS011;64097;52.548;13.406;2023-04-25T16:29:32;3.33;;;1.10;;
75516;SDS011;64097;52.548;13.406;2023-04-25T16:31:57;3.75;;;1.10;;
75516;SDS011;64097;52.548;13.406;2023-04-25T16:34:23;2.40;;;1.05;;
75516;SDS011;64097;52.548;13.406;2023-04-25T16:36:51;2.45;;;0.90;;
75516;SDS011;64097;52.548;13.406;2023-04-25T16:39:17;2.20;;;0.88;;
75516;SDS011;64097;52.548;13.406;2023-04-25T16:41:45;2.75;;;0.80;;
75516;SDS011;64097;52.548;13.406;2023-04-25T16:44:11;1.50;;;0.95;;
75516;SDS011;64097;52.548;13.406;2023-04-25T16:46:37;2.40;;;0.95;;
75516;SDS011;64097;52.548;13.406;2023-04-25T16:49:03;1.83;;;0.82;;
75516;SDS011;64097;52.548;13.406;2023-04-25T16:51:29;4.68;;;0.95;;
75516;SDS011;64097;52.548;13.406;2023-04-25T16:53:56;1.60;;;0.70;;
75516;SDS011;64097;52.548;13.406;2023-04-25T16:56:23;1.63;;;0.88;;
75516;SDS011;64097;52.548;13.406;2023-04-25T16:58:49;1.70;;;0.80;;
75516;SDS011;64097;52.548;13.406;2023-04-25T17:01:16;2.63;;;1.10;;
75516;SDS011;64097;52.548;13.406;2023-04-25T17:03:44;2.10;;;1.00;;
75516;SDS011;64097;52.548;13.406;2023-04-25T17:06:10;3.78;;;0.98;;
75516;SDS011;64097;52.548;13.406;2023-04-25T17:08:36;2.30;;;0.80;;
75516;SDS011;64097;52.548;13.406;2023-04-25T17:11:02;2.28;;;0.73;;
75516;SDS011;64097;52.548;13.406;2023-04-25T17:13:28;3.03;;;0.95;;
75516;SDS011;64097;52.548;13.406;2023-04-25T17:15:54;2.50;;;1.05;;
75516;SDS011;64097;52.548;13.406;2023-04-25T17:18:21;2.50;;;1.02;;
75516;SDS011;64097;52.548;13.406;2023-04-25T17:20:47;1.75;;;1.02;;
75516;SDS011;64097;52.548;13.406;2023-04-25T17:23:12;2.90;;;0.82;;
75516;SDS011;64097;52.548;13.406;2023-04-25T17:25:38;3.17;;;0.98;;
75516;SDS011;64097;52.548;13.406;2023-04-25T17:28:04;1.88;;;0.98;;
75516;SDS011;64097;52.548;13.406;2023-04-25T17:30:29;1.70;;;0.70;;
75516;SDS011;64097;52.548;13.406;2023-04-25T17:32:56;2.63;;;0.93;;
75516;SDS011;64097;52.548;13.406;2023-04-25T17:35:22;2.17;;;0.85;;
75516;SDS011;64097;52.548;13.406;2023-04-25T17:37:48;1.27;;;0.70;;
75516;SDS011;64097;52.548;13.406;2023-04-25T17:40:16;1.50;;;0.75;;
75516;SDS011;64097;52.548;13.406;2023-04-25T17:42:42;2.30;;;0.90;;
75516;SDS011;64097;52.548;13.406;2023-04-25T17:45:08;1.77;;;0.85;;
75516;SDS011;64097;52.548;13.406;2023-04-25T17:47:37;2.47;;;0.80;;
75516;SDS011;64097;52.548;13.406;2023-04-25T17:50:03;3.92;;;1.20;;
75516;SDS011;64097;52.548;13.406;2023-04-25T17:52:32;2.45;;;1.10;;
75516;SDS011;64097;52.548;13.406;2023-04-25T17:54:58;2.75;;;1.10;;
75516;SDS011;64097;52.548;13.406;2023-04-25T17:57:24;3.60;;;1.15;;
75516;SDS011;64097;52.548;13.406;2023-04-25T17:59:50;2.97;;;1.25;;
75516;SDS011;64097;52.548;13.406;2023-04-25T18:02:16;2.13;;;0.95;;
75516;SDS011;64097;52.548;13.406;2023-04-25T18:04:42;2.10;;;1.08;;
75516;SDS011;64097;52.548;13.406;2023-04-25T18:07:07;2.38;;;1.15;;
75516;SDS011;64097;52.548;13.406;2023-04-25T18:09:33;2.60;;;1.13;;
75516;SDS011;64097;52.548;13.406;2023-04-25T18:12:00;1.98;;;1.00;;
75516;SDS011;64097;52.548;13.406;2023-04-25T18:14:26;2.47;;;1.20;;
75516;SDS011;64097;52.548;13.406;2023-04-25T18:16:52;2.75;;;1.08;;
75516;SDS011;64097;52.548;13.406;2023-04-25T18:19:18;2.33;;;1.30;;
75516;SDS011;64097;52.548;13.406;2023-04-25T18:21:48;3.90;;;1.20;;
75516;SDS011;64097;52.548;13.406;2023-04-25T18:24:15;2.97;;;1.20;;
75516;SDS011;64097;52.548;13.406;2023-04-25T18:26:44;2.17;;;1.20;;
75516;SDS011;64097;52.548;13.406;2023-04-25T18:29:11;3.30;;;1.10;;
75516;SDS011;64097;52.548;13.406;2023-04-25T18:31:37;2.40;;;1.17;;
75516;SDS011;64097;52.548;13.406;2023-04-25T18:34:03;2.95;;;1.40;;
75516;SDS011;64097;52.548;13.406;2023-04-25T18:36:29;1.95;;;1.15;;
75516;SDS011;64097;52.548;13.406;2023-04-25T18:38:55;3.63;;;1.10;;
75516;SDS011;64097;52.548;13.406;2023-04-25T18:41:24;3.58;;;1.40;;
75516;SDS011;64097;52.548;13.406;2023-04-25T18:43:50;2.30;;;1.10;;
75516;SDS011;64097;52.548;13.406;2023-04-25T18:46:16;2.92;;;1.05;;
75516;SDS011;64097;52.548;13.406;2023-04-25T18:48:46;1.80;;;1.13;;
75516;SDS011;64097;52.548;13.406;2023-04-25T18:51:15;2.30;;;1.00;;
75516;SDS011;64097;52.548;13.406;2023-04-25T18:53:41;2.60;;;1.15;;
75516;SDS011;64097;52.548;13.406;2023-04-25T18:56:07;3.13;;;1.27;;
75516;SDS011;64097;52.548;13.406;2023-04-25T18:58:33;2.00;;;1.20;;
75516;SDS011;64097;52.548;13.406;2023-04-25T19:00:59;4.60;;;1.25;;
75516;SDS011;64097;52.548;13.406;2023-04-25T19:03:26;3.22;;;1.20;;
75516;SDS011;64097;52.548;13.406;2023-04-25T19:05:52;1.80;;;0.98;;
75516;SDS011;64097;52.548;13.406;2023-04-25T19:08:18;2.45;;;1.25;;
75516;SDS011;64097;52.548;13.406;2023-04-25T19:10:44;3.50;;;1.10;;
75516;SDS011;64097;52.548;13.406;2023-04-25T19:13:11;3.20;;;1.10;;
75516;SDS011;64097;52.548;13.406;2023-04-25T19:15:37;2.95;;;1.20;;
75516;SDS011;64097;52.548;13.406;2023-04-25T19:18:03;2.20;;;1.00;;
75516;SDS011;64097;52.548;13.406;2023-04-25T19:20:29;3.45;;;1.23;;
75516;SDS011;64097;52.548;13.406;2023-04-25T19:22:56;3.13;;;1.10;;
75516;SDS011;64097;52.548;13.406;2023-04-25T19:25:22;2.60;;;1.25;;
75516;SDS011;64097;52.548;13.406;2023-04-25T19:27:49;2.03;;;0.90;;
75516;SDS011;64097;52.548;13.406;2023-04-25T19:30:15;14.30;;;1.52;;
75516;SDS011;64097;52.548;13.406;2023-04-25T19:32:41;2.08;;;0.93;;
75516;SDS011;64097;52.548;13.406;2023-04-25T19:35:07;2.20;;;0.90;;
75516;SDS011;64097;52.548;13.406;2023-04-25T19:37:34;2.30;;;1.00;;
75516;SDS011;64097;52.548;13.406;2023-04-25T19:40:00;1.60;;;0.80;;
75516;SDS011;64097;52.548;13.406;2023-04-25T19:42:25;4.35;;;1.10;;
75516;SDS011;64097;52.548;13.406;2023-04-25T19:44:51;2.25;;;1.00;;
75516;SDS011;64097;52.548;13.406;2023-04-25T19:47:17;1.85;;;0.95;;
75516;SDS011;64097;52.548;13.406;2023-04-25T19:49:43;2.85;;;1.25;;
75516;SDS011;64097;52.548;13.406;2023-04-25T19:52:09;2.53;;;1.08;;
75516;SDS011;64097;52.548;13.406;2023-04-25T19:54:39;2.00;;;1.00;;
75516;SDS011;64097;52.548;13.406;2023-04-25T19:57:06;3.42;;;1.00;;
75516;SDS011;64097;52.548;13.406;2023-04-25T19:59:31;3.15;;;1.00;;
75516;SDS011;64097;52.548;13.406;2023-04-25T20:01:58;2.40;;;1.10;;
75516;SDS011;64097;52.548;13.406;2023-04-25T20:04:24;1.83;;;1.10;;
75516;SDS011;64097;52.548;13.406;2023-04-25T20:06:50;2.08;;;1.20;;
75516;SDS011;64097;52.548;13.406;2023-04-25T20:09:17;2.88;;;1.13;;
75516;SDS011;64097;52.548;13.406;2023-04-25T20:11:45;3.35;;;1.35;;
75516;SDS011;64097;52.548;13.406;2023-04-25T20:14:11;3.65;;;1.27;;
75516;SDS011;64097;52.548;13.406;2023-04-25T20:16:37;3.85;;;1.30;;
75516;SDS011;64097;52.548;13.406;2023-04-25T20:19:02;2.47;;;0.98;;
75516;SDS011;64097;52.548;13.406;2023-04-25T20:21:32;4.38;;;1.27;;
75516;SDS011;64097;52.548;13.406;2023-04-25T20:23:58;2.60;;;1.10;;
75516;SDS011;64097;52.548;13.406;2023-04-25T20:26:27;2.88;;;1.30;;
75516;SDS011;64097;52.548;13.406;2023-04-25T20:28:53;3.97;;;1.30;;
75516;SDS011;64097;52.548;13.406;2023-04-25T20:31:19;3.67;;;1.40;;
75516;SDS011;64097;52.548;13.406;2023-04-25T20:33:46;3.55;;;1.48;;
75516;SDS011;64097;52.548;13.406;2023-04-25T20:36:12;3.42;;;1.17;;
75516;SDS011;64097;52.548;13.406;2023-04-25T20:38:39;3.58;;;1.35;;
75516;SDS011;64097;52.548;13.406;2023-04-25T20:41:05;1.83;;;1.00;;
75516;SDS011;64097;52.548;13.406;2023-04-25T20:43:31;2.05;;;1.20;;
75516;SDS011;64097;52.548;13.406;2023-04-25T20:45:58;2.08;;;1.10;;
75516;SDS011;64097;52.548;13.406;2023-04-25T20:48:25;2.63;;;1.20;;
75516;SDS011;64097;52.548;13.406;2023-04-25T20:50:51;2.63;;;1.20;;
75516;SDS011;64097;52.548;13.406;2023-04-25T20:53:17;2.97;;;1.25;;
75516;SDS011;64097;52.548;13.406;2023-04-25T20:55:42;3.65;;;1.30;;